sensor_id;sensor_type;location;lat;lon;timestamp;pressure;altitude;pressure_sealevel;temperature;humidity
27840;BME280;15207;42.182;24.308;2023-07-16T00:00:25;99380.09;;;25.73;69.75
27840;BME280;15207;42.182;24.308;2023-07-16T00:02:50;99379.44;;;25.78;70.12
27840;BME280;15207;42.182;24.308;2023-07-16T00:05:16;99381.56;;;25.76;70.60
27840;BME280;15207;42.182;24.308;2023-07-16T00:07:42;99380.78;;;25.62;70.57
27840;BME280;15207;42.182;24.308;2023-07-16T00:10:08;99386.09;;;25.57;70.28
27840;BME280;15207;42.182;24.308;2023-07-16T00:12:33;99383.19;;;25.38;70.90
27840;BME280;15207;42.182;24.308;2023-07-16T00:14:59;99381.69;;;25.49;70.88
27840;BME280;15207;42.182;24.308;2023-07-16T00:17:25;99382.75;;;25.48;70.52
27840;BME280;15207;42.182;24.308;2023-07-16T00:19:50;99387.75;;;25.65;69.88
27840;BME280;15207;42.182;24.308;2023-07-16T00:22:16;99389.22;;;25.54;70.63
27840;BME280;15207;42.182;24.308;2023-07-16T00:24:41;99394.91;;;25.66;70.12
27840;BME280;15207;42.182;24.308;2023-07-16T00:27:07;99388.53;;;25.72;69.91
27840;BME280;15207;42.182;24.308;2023-07-16T00:29:32;99394.09;;;25.58;70.34
27840;BME280;15207;42.182;24.308;2023-07-16T00:31:58;99393.03;;;25.53;70.44
27840;BME280;15207;42.182;24.308;2023-07-16T00:34:23;99391.56;;;25.50;70.25
27840;BME280;15207;42.182;24.308;2023-07-16T00:36:48;99389.72;;;25.44;70.78
27840;BME280;15207;42.182;24.308;2023-07-16T00:39:14;99391.81;;;25.42;70.83
27840;BME280;15207;42.182;24.308;2023-07-16T00:41:39;99391.38;;;25.45;70.33
27840;BME280;15207;42.182;24.308;2023-07-16T00:44:05;99383.56;;;25.48;70.14
27840;BME280;15207;42.182;24.308;2023-07-16T00:46:30;99394.72;;;25.60;69.58
27840;BME280;15207;42.182;24.308;2023-07-16T00:48:56;99380.63;;;25.43;69.14
27840;BME280;15207;42.182;24.308;2023-07-16T00:51:22;99387.59;;;25.46;69.57
27840;BME280;15207;42.182;24.308;2023-07-16T00:53:49;99389.69;;;25.51;69.58
27840;BME280;15207;42.182;24.308;2023-07-16T00:56:17;99388.44;;;25.46;69.74
27840;BME280;15207;42.182;24.308;2023-07-16T00:58:45;99385.75;;;25.33;69.89
27840;BME280;15207;42.182;24.308;2023-07-16T01:01:11;99380.94;;;25.21;70.56
27840;BME280;15207;42.182;24.308;2023-07-16T01:03:38;99376.94;;;25.24;70.22
27840;BME280;15207;42.182;24.308;2023-07-16T01:08:45;99386.31;;;25.42;69.84
27840;BME280;15207;42.182;24.308;2023-07-16T01:11:12;99388.19;;;25.55;69.31
27840;BME280;15207;42.182;24.308;2023-07-16T01:13:37;99383.13;;;25.52;69.81
27840;BME280;15207;42.182;24.308;2023-07-16T01:16:03;99391.19;;;25.46;71.17
27840;BME280;15207;42.182;24.308;2023-07-16T01:18:29;99391.00;;;25.41;71.79
27840;BME280;15207;42.182;24.308;2023-07-16T01:20:54;99385.75;;;25.33;72.31
27840;BME280;15207;42.182;24.308;2023-07-16T01:25:59;99397.13;;;25.30;72.52
27840;BME280;15207;42.182;24.308;2023-07-16T01:31:11;99386.63;;;25.20;74.27
27840;BME280;15207;42.182;24.308;2023-07-16T01:33:38;99391.94;;;25.08;74.79
27840;BME280;15207;42.182;24.308;2023-07-16T01:36:06;99389.88;;;24.96;75.80
27840;BME280;15207;42.182;24.308;2023-07-16T01:38:33;99381.66;;;24.83;76.19
27840;BME280;15207;42.182;24.308;2023-07-16T01:40:59;99388.38;;;24.74;76.81
27840;BME280;15207;42.182;24.308;2023-07-16T01:43:24;99387.34;;;24.68;76.26
27840;BME280;15207;42.182;24.308;2023-07-16T01:45:50;99385.44;;;24.75;74.94
27840;BME280;15207;42.182;24.308;2023-07-16T01:48:30;99384.78;;;24.80;75.47
27840;BME280;15207;42.182;24.308;2023-07-16T01:50:56;99386.09;;;24.84;75.17
27840;BME280;15207;42.182;24.308;2023-07-16T01:53:21;99394.28;;;24.84;75.53
27840;BME280;15207;42.182;24.308;2023-07-16T01:55:47;99396.22;;;24.83;75.31
27840;BME280;15207;42.182;24.308;2023-07-16T01:58:13;99391.97;;;24.81;75.26
27840;BME280;15207;42.182;24.308;2023-07-16T02:00:39;99392.59;;;24.76;75.97
27840;BME280;15207;42.182;24.308;2023-07-16T02:03:05;99396.41;;;24.75;76.32
27840;BME280;15207;42.182;24.308;2023-07-16T02:05:30;99394.31;;;24.70;76.31
27840;BME280;15207;42.182;24.308;2023-07-16T02:07:55;99394.50;;;24.69;76.61
27840;BME280;15207;42.182;24.308;2023-07-16T02:10:21;99389.66;;;24.64;75.76
27840;BME280;15207;42.182;24.308;2023-07-16T02:12:47;99393.47;;;24.63;75.86
27840;BME280;15207;42.182;24.308;2023-07-16T02:15:12;99389.91;;;24.63;76.07
27840;BME280;15207;42.182;24.308;2023-07-16T02:17:38;99387.97;;;24.63;75.44
27840;BME280;15207;42.182;24.308;2023-07-16T02:20:04;99388.22;;;24.55;75.44
27840;BME280;15207;42.182;24.308;2023-07-16T02:22:34;99393.69;;;24.55;75.36
27840;BME280;15207;42.182;24.308;2023-07-16T02:25:00;99391.56;;;24.50;75.83
27840;BME280;15207;42.182;24.308;2023-07-16T02:27:26;99401.69;;;24.29;76.81
27840;BME280;15207;42.182;24.308;2023-07-16T02:29:51;99395.59;;;24.27;76.60
27840;BME280;15207;42.182;24.308;2023-07-16T02:32:17;99407.53;;;24.20;77.20
27840;BME280;15207;42.182;24.308;2023-07-16T02:34:42;99403.56;;;24.09;77.82
27840;BME280;15207;42.182;24.308;2023-07-16T02:37:08;99405.16;;;23.89;79.15
27840;BME280;15207;42.182;24.308;2023-07-16T02:39:33;99412.09;;;23.99;79.04
27840;BME280;15207;42.182;24.308;2023-07-16T02:41:59;99412.75;;;24.01;79.25
27840;BME280;15207;42.182;24.308;2023-07-16T02:44:24;99407.50;;;24.06;79.23
27840;BME280;15207;42.182;24.308;2023-07-16T02:46:50;99401.44;;;24.17;78.59
27840;BME280;15207;42.182;24.308;2023-07-16T02:49:16;99408.38;;;24.13;79.09
27840;BME280;15207;42.182;24.308;2023-07-16T02:51:41;99406.84;;;24.04;78.55
27840;BME280;15207;42.182;24.308;2023-07-16T02:54:07;99410.00;;;23.87;79.89
27840;BME280;15207;42.182;24.308;2023-07-16T02:56:33;99413.34;;;23.76;80.62
27840;BME280;15207;42.182;24.308;2023-07-16T02:58:59;99412.91;;;23.72;81.29
27840;BME280;15207;42.182;24.308;2023-07-16T03:01:24;99417.47;;;23.58;82.17
27840;BME280;15207;42.182;24.308;2023-07-16T03:03:50;99414.50;;;23.53;82.73
27840;BME280;15207;42.182;24.308;2023-07-16T03:06:15;99409.22;;;23.51;82.76
27840;BME280;15207;42.182;24.308;2023-07-16T03:08:41;99409.66;;;23.48;83.07
27840;BME280;15207;42.182;24.308;2023-07-16T03:11:06;99416.19;;;23.47;83.46
27840;BME280;15207;42.182;24.308;2023-07-16T03:13:32;99411.09;;;23.44;83.14
27840;BME280;15207;42.182;24.308;2023-07-16T03:15:58;99422.47;;;23.48;83.58
27840;BME280;15207;42.182;24.308;2023-07-16T03:18:28;99418.25;;;23.45;84.33
27840;BME280;15207;42.182;24.308;2023-07-16T03:20:53;99419.50;;;23.43;84.23
27840;BME280;15207;42.182;24.308;2023-07-16T03:23:19;99422.66;;;23.40;84.27
27840;BME280;15207;42.182;24.308;2023-07-16T03:25:44;99419.28;;;23.37;84.73
27840;BME280;15207;42.182;24.308;2023-07-16T03:28:10;99419.47;;;23.36;84.98
27840;BME280;15207;42.182;24.308;2023-07-16T03:30:35;99421.19;;;23.37;84.88
27840;BME280;15207;42.182;24.308;2023-07-16T03:33:03;99427.22;;;23.32;85.51
27840;BME280;15207;42.182;24.308;2023-07-16T03:35:29;99423.38;;;23.27;85.87
27840;BME280;15207;42.182;24.308;2023-07-16T03:37:54;99430.75;;;23.26;86.11
27840;BME280;15207;42.182;24.308;2023-07-16T03:40:21;99427.34;;;23.24;87.04
27840;BME280;15207;42.182;24.308;2023-07-16T03:42:47;99427.34;;;23.17;87.14
27840;BME280;15207;42.182;24.308;2023-07-16T03:45:12;99421.66;;;23.19;87.74
27840;BME280;15207;42.182;24.308;2023-07-16T03:47:39;99427.34;;;23.17;87.48
27840;BME280;15207;42.182;24.308;2023-07-16T03:50:05;99427.31;;;23.10;87.30
27840;BME280;15207;42.182;24.308;2023-07-16T03:52:31;99435.13;;;23.20;87.62
27840;BME280;15207;42.182;24.308;2023-07-16T03:54:56;99423.38;;;23.27;87.03
27840;BME280;15207;42.182;24.308;2023-07-16T03:57:21;99432.50;;;23.34;87.09
27840;BME280;15207;42.182;24.308;2023-07-16T03:59:47;99435.25;;;23.41;87.11
27840;BME280;15207;42.182;24.308;2023-07-16T04:02:13;99433.19;;;23.49;87.43
27840;BME280;15207;42.182;24.308;2023-07-16T04:04:38;99437.66;;;23.57;87.70
27840;BME280;15207;42.182;24.308;2023-07-16T04:07:04;99438.50;;;23.64;87.67
27840;BME280;15207;42.182;24.308;2023-07-16T04:09:29;99433.69;;;23.67;87.51
27840;BME280;15207;42.182;24.308;2023-07-16T04:11:55;99441.72;;;23.75;87.73
27840;BME280;15207;42.182;24.308;2023-07-16T04:14:20;99442.56;;;23.82;87.90
27840;BME280;15207;42.182;24.308;2023-07-16T04:16:46;99441.75;;;23.95;88.28
27840;BME280;15207;42.182;24.308;2023-07-16T04:19:12;99448.34;;;24.14;87.54
27840;BME280;15207;42.182;24.308;2023-07-16T04:21:37;99448.63;;;24.40;86.65
27840;BME280;15207;42.182;24.308;2023-07-16T04:24:05;99441.44;;;24.59;85.97
27840;BME280;15207;42.182;24.308;2023-07-16T04:26:30;99447.56;;;24.75;85.50
27840;BME280;15207;42.182;24.308;2023-07-16T04:28:55;99447.56;;;24.81;85.17
27840;BME280;15207;42.182;24.308;2023-07-16T04:31:21;99447.78;;;24.93;84.91
27840;BME280;15207;42.182;24.308;2023-07-16T04:33:46;99449.03;;;25.11;83.98
27840;BME280;15207;42.182;24.308;2023-07-16T04:36:12;99449.84;;;25.25;82.86
27840;BME280;15207;42.182;24.308;2023-07-16T04:38:37;99448.53;;;25.41;81.39
27840;BME280;15207;42.182;24.308;2023-07-16T04:41:03;99453.34;;;25.59;79.26
27840;BME280;15207;42.182;24.308;2023-07-16T04:43:28;99452.63;;;25.78;77.77
27840;BME280;15207;42.182;24.308;2023-07-16T04:45:54;99456.34;;;25.90;76.27
27840;BME280;15207;42.182;24.308;2023-07-16T04:48:19;99455.47;;;26.03;75.20
27840;BME280;15207;42.182;24.308;2023-07-16T04:50:45;99457.94;;;26.11;74.02
27840;BME280;15207;42.182;24.308;2023-07-16T04:53:10;99457.22;;;26.23;72.66
27840;BME280;15207;42.182;24.308;2023-07-16T04:55:39;99463.50;;;26.37;72.69
27840;BME280;15207;42.182;24.308;2023-07-16T04:58:05;99463.22;;;26.45;71.74
27840;BME280;15207;42.182;24.308;2023-07-16T05:00:34;99470.06;;;26.36;70.64
27840;BME280;15207;42.182;24.308;2023-07-16T05:03:00;99466.78;;;26.52;70.20
27840;BME280;15207;42.182;24.308;2023-07-16T05:05:25;99471.34;;;26.33;70.75
27840;BME280;15207;42.182;24.308;2023-07-16T05:07:51;99464.03;;;26.52;70.23
27840;BME280;15207;42.182;24.308;2023-07-16T05:10:17;99466.25;;;26.88;68.79
27840;BME280;15207;42.182;24.308;2023-07-16T05:12:42;99473.34;;;27.02;68.33
27840;BME280;15207;42.182;24.308;2023-07-16T05:15:08;99473.66;;;27.13;65.45
27840;BME280;15207;42.182;24.308;2023-07-16T05:17:34;99460.75;;;27.13;65.06
27840;BME280;15207;42.182;24.308;2023-07-16T05:19:59;99477.53;;;27.05;63.88
27840;BME280;15207;42.182;24.308;2023-07-16T05:22:25;99479.66;;;27.03;62.83
27840;BME280;15207;42.182;24.308;2023-07-16T05:24:50;99478.56;;;27.29;62.11
27840;BME280;15207;42.182;24.308;2023-07-16T05:27:15;99475.88;;;27.04;61.53
27840;BME280;15207;42.182;24.308;2023-07-16T05:29:43;99481.59;;;27.02;62.52
27840;BME280;15207;42.182;24.308;2023-07-16T05:32:08;99480.13;;;27.18;61.60
27840;BME280;15207;42.182;24.308;2023-07-16T05:34:34;99472.69;;;27.26;60.43
27840;BME280;15207;42.182;24.308;2023-07-16T05:36:59;99474.53;;;27.51;60.80
27840;BME280;15207;42.182;24.308;2023-07-16T05:39:25;99475.75;;;27.36;59.67
27840;BME280;15207;42.182;24.308;2023-07-16T05:41:50;99474.16;;;27.47;60.13
27840;BME280;15207;42.182;24.308;2023-07-16T05:44:16;99482.75;;;27.32;59.18
27840;BME280;15207;42.182;24.308;2023-07-16T05:46:42;99479.34;;;27.37;59.38
27840;BME280;15207;42.182;24.308;2023-07-16T05:49:07;99477.97;;;27.65;58.44
27840;BME280;15207;42.182;24.308;2023-07-16T05:51:33;99478.84;;;27.96;57.08
27840;BME280;15207;42.182;24.308;2023-07-16T05:53:58;99481.72;;;27.70;55.74
27840;BME280;15207;42.182;24.308;2023-07-16T05:56:24;99476.88;;;27.84;55.76
27840;BME280;15207;42.182;24.308;2023-07-16T05:58:49;99484.56;;;27.64;56.11
27840;BME280;15207;42.182;24.308;2023-07-16T06:01:15;99479.31;;;27.55;56.63
27840;BME280;15207;42.182;24.308;2023-07-16T06:03:40;99482.38;;;27.84;56.56
27840;BME280;15207;42.182;24.308;2023-07-16T06:06:08;99483.91;;;27.99;54.76
27840;BME280;15207;42.182;24.308;2023-07-16T06:08:34;99482.47;;;27.78;54.82
27840;BME280;15207;42.182;24.308;2023-07-16T06:11:00;99485.53;;;27.51;55.62
27840;BME280;15207;42.182;24.308;2023-07-16T06:13:25;99472.09;;;27.61;53.47
27840;BME280;15207;42.182;24.308;2023-07-16T06:15:51;99479.41;;;27.86;53.49
27840;BME280;15207;42.182;24.308;2023-07-16T06:18:16;99473.25;;;27.72;53.02
27840;BME280;15207;42.182;24.308;2023-07-16T06:20:44;99470.09;;;27.50;53.53
27840;BME280;15207;42.182;24.308;2023-07-16T06:23:11;99470.25;;;27.55;54.15
27840;BME280;15207;42.182;24.308;2023-07-16T06:25:37;99466.03;;;27.71;54.09
27840;BME280;15207;42.182;24.308;2023-07-16T06:28:04;99465.84;;;28.03;53.54
27840;BME280;15207;42.182;24.308;2023-07-16T06:30:30;99463.63;;;27.81;53.25
27840;BME280;15207;42.182;24.308;2023-07-16T06:32:57;99455.59;;;27.80;54.04
27840;BME280;15207;42.182;24.308;2023-07-16T06:35:23;99457.03;;;28.44;52.52
27840;BME280;15207;42.182;24.308;2023-07-16T06:37:48;99447.22;;;28.48;51.96
27840;BME280;15207;42.182;24.308;2023-07-16T06:40:14;99448.44;;;28.52;51.35
27840;BME280;15207;42.182;24.308;2023-07-16T06:42:39;99449.63;;;28.56;50.33
27840;BME280;15207;42.182;24.308;2023-07-16T06:45:05;99447.56;;;28.40;50.41
27840;BME280;15207;42.182;24.308;2023-07-16T06:47:31;99447.19;;;28.36;49.58
27840;BME280;15207;42.182;24.308;2023-07-16T06:49:57;99443.53;;;28.11;50.63
27840;BME280;15207;42.182;24.308;2023-07-16T06:52:23;99445.84;;;28.27;52.13
27840;BME280;15207;42.182;24.308;2023-07-16T06:54:53;99444.47;;;28.48;51.79
27840;BME280;15207;42.182;24.308;2023-07-16T06:57:18;99448.88;;;28.37;50.72
27840;BME280;15207;42.182;24.308;2023-07-16T06:59:44;99444.56;;;28.10;50.77
27840;BME280;15207;42.182;24.308;2023-07-16T07:02:10;99449.22;;;28.41;50.16
27840;BME280;15207;42.182;24.308;2023-07-16T07:04:35;99446.66;;;28.82;49.47
27840;BME280;15207;42.182;24.308;2023-07-16T07:07:01;99446.78;;;28.75;48.17
27840;BME280;15207;42.182;24.308;2023-07-16T07:09:26;99457.91;;;28.68;48.69
27840;BME280;15207;42.182;24.308;2023-07-16T07:11:52;99448.16;;;28.54;49.11
27840;BME280;15207;42.182;24.308;2023-07-16T07:14:17;99455.97;;;28.57;48.72
27840;BME280;15207;42.182;24.308;2023-07-16T07:16:43;99452.13;;;28.58;49.54
27840;BME280;15207;42.182;24.308;2023-07-16T07:19:09;99442.13;;;28.87;48.83
27840;BME280;15207;42.182;24.308;2023-07-16T07:21:34;99435.41;;;28.83;49.12
27840;BME280;15207;42.182;24.308;2023-07-16T07:24:00;99446.44;;;29.07;48.63
27840;BME280;15207;42.182;24.308;2023-07-16T07:26:25;99440.53;;;29.27;47.33
27840;BME280;15207;42.182;24.308;2023-07-16T07:28:51;99437.00;;;29.03;47.68
27840;BME280;15207;42.182;24.308;2023-07-16T07:31:16;99430.84;;;29.25;47.26
27840;BME280;15207;42.182;24.308;2023-07-16T07:33:42;99426.88;;;29.33;46.45
27840;BME280;15207;42.182;24.308;2023-07-16T07:36:08;99435.97;;;29.45;48.54
27840;BME280;15207;42.182;24.308;2023-07-16T07:38:33;99431.19;;;29.16;47.80
27840;BME280;15207;42.182;24.308;2023-07-16T07:40:58;99434.28;;;29.56;48.54
27840;BME280;15207;42.182;24.308;2023-07-16T07:43:24;99432.69;;;29.60;47.16
27840;BME280;15207;42.182;24.308;2023-07-16T07:45:49;99431.13;;;29.64;47.64
27840;BME280;15207;42.182;24.308;2023-07-16T07:48:15;99429.75;;;29.79;47.15
27840;BME280;15207;42.182;24.308;2023-07-16T07:50:41;99424.09;;;29.56;47.23
27840;BME280;15207;42.182;24.308;2023-07-16T07:53:06;99435.16;;;29.21;48.82
27840;BME280;15207;42.182;24.308;2023-07-16T07:55:33;99428.97;;;29.01;48.67
27840;BME280;15207;42.182;24.308;2023-07-16T07:58:00;99439.59;;;28.86;49.74
27840;BME280;15207;42.182;24.308;2023-07-16T08:00:25;99431.69;;;29.25;49.36
27840;BME280;15207;42.182;24.308;2023-07-16T08:02:51;99433.81;;;29.88;48.18
27840;BME280;15207;42.182;24.308;2023-07-16T08:05:17;99433.72;;;29.83;48.12
27840;BME280;15207;42.182;24.308;2023-07-16T08:07:42;99430.38;;;29.69;48.86
27840;BME280;15207;42.182;24.308;2023-07-16T08:10:08;99430.56;;;30.08;47.53
27840;BME280;15207;42.182;24.308;2023-07-16T08:12:34;99420.84;;;30.18;47.42
27840;BME280;15207;42.182;24.308;2023-07-16T08:14:59;99429.81;;;30.25;45.57
27840;BME280;15207;42.182;24.308;2023-07-16T08:17:25;99427.47;;;30.05;46.66
27840;BME280;15207;42.182;24.308;2023-07-16T08:19:51;99433.91;;;30.22;45.81
27840;BME280;15207;42.182;24.308;2023-07-16T08:22:17;99423.00;;;29.87;46.33
27840;BME280;15207;42.182;24.308;2023-07-16T08:24:42;99425.84;;;29.63;46.55
27840;BME280;15207;42.182;24.308;2023-07-16T08:27:07;99415.97;;;29.79;46.14
27840;BME280;15207;42.182;24.308;2023-07-16T08:29:35;99415.84;;;29.86;45.88
27840;BME280;15207;42.182;24.308;2023-07-16T08:32:00;99414.63;;;29.81;46.45
27840;BME280;15207;42.182;24.308;2023-07-16T08:34:26;99413.06;;;30.32;46.07
27840;BME280;15207;42.182;24.308;2023-07-16T08:36:51;99423.19;;;30.26;44.52
27840;BME280;15207;42.182;24.308;2023-07-16T08:39:17;99415.59;;;30.33;46.19
27840;BME280;15207;42.182;24.308;2023-07-16T08:41:44;99413.38;;;30.70;45.38
27840;BME280;15207;42.182;24.308;2023-07-16T08:44:12;99419.84;;;30.58;45.44
27840;BME280;15207;42.182;24.308;2023-07-16T08:46:38;99414.56;;;30.57;44.96
27840;BME280;15207;42.182;24.308;2023-07-16T08:49:07;99422.41;;;30.77;44.93
27840;BME280;15207;42.182;24.308;2023-07-16T08:51:34;99419.00;;;30.92;44.04
27840;BME280;15207;42.182;24.308;2023-07-16T08:54:00;99420.78;;;30.98;44.71
27840;BME280;15207;42.182;24.308;2023-07-16T08:56:26;99412.25;;;30.83;44.58
27840;BME280;15207;42.182;24.308;2023-07-16T08:58:54;99417.38;;;31.13;44.08
27840;BME280;15207;42.182;24.308;2023-07-16T09:01:23;99416.03;;;31.16;44.59
27840;BME280;15207;42.182;24.308;2023-07-16T09:03:49;99416.13;;;31.44;43.79
27840;BME280;15207;42.182;24.308;2023-07-16T09:06:15;99412.19;;;31.39;42.95
27840;BME280;15207;42.182;24.308;2023-07-16T09:08:41;99414.47;;;31.43;43.71
27840;BME280;15207;42.182;24.308;2023-07-16T09:11:10;99416.94;;;31.22;44.01
27840;BME280;15207;42.182;24.308;2023-07-16T09:13:36;99410.19;;;31.12;44.29
27840;BME280;15207;42.182;24.308;2023-07-16T09:16:02;99411.50;;;31.49;43.95
27840;BME280;15207;42.182;24.308;2023-07-16T09:18:30;99404.88;;;32.00;43.74
27840;BME280;15207;42.182;24.308;2023-07-16T09:21:00;99398.38;;;32.17;43.98
27840;BME280;15207;42.182;24.308;2023-07-16T09:23:32;99404.63;;;32.02;43.29
27840;BME280;15207;42.182;24.308;2023-07-16T09:25:58;99401.50;;;31.93;43.67
27840;BME280;15207;42.182;24.308;2023-07-16T09:28:24;99397.16;;;32.02;43.36
27840;BME280;15207;42.182;24.308;2023-07-16T09:30:51;99396.91;;;31.82;43.36
27840;BME280;15207;42.182;24.308;2023-07-16T09:33:18;99397.69;;;31.99;43.58
27840;BME280;15207;42.182;24.308;2023-07-16T09:35:47;99397.72;;;32.04;43.78
27840;BME280;15207;42.182;24.308;2023-07-16T09:38:13;99398.50;;;32.00;43.47
27840;BME280;15207;42.182;24.308;2023-07-16T09:40:39;99381.75;;;31.62;44.28
27840;BME280;15207;42.182;24.308;2023-07-16T09:43:08;99377.50;;;31.76;45.13
27840;BME280;15207;42.182;24.308;2023-07-16T09:45:34;99377.50;;;32.04;44.67
27840;BME280;15207;42.182;24.308;2023-07-16T09:47:59;99373.84;;;31.71;44.37
27840;BME280;15207;42.182;24.308;2023-07-16T09:50:28;99371.06;;;31.93;44.87
27840;BME280;15207;42.182;24.308;2023-07-16T09:52:57;99365.41;;;32.15;44.38
27840;BME280;15207;42.182;24.308;2023-07-16T09:55:24;99363.56;;;31.93;45.30
27840;BME280;15207;42.182;24.308;2023-07-16T09:57:52;99364.56;;;32.10;44.70
27840;BME280;15207;42.182;24.308;2023-07-16T10:00:19;99364.56;;;31.82;44.96
27840;BME280;15207;42.182;24.308;2023-07-16T10:02:46;99355.72;;;31.85;45.52
27840;BME280;15207;42.182;24.308;2023-07-16T10:05:27;99352.81;;;31.97;45.76
27840;BME280;15207;42.182;24.308;2023-07-16T10:07:55;99356.13;;;32.27;44.65
27840;BME280;15207;42.182;24.308;2023-07-16T10:10:45;99355.09;;;32.38;44.53
27840;BME280;15207;42.182;24.308;2023-07-16T10:13:14;99352.97;;;32.51;44.82
27840;BME280;15207;42.182;24.308;2023-07-16T10:15:57;99349.88;;;32.09;44.73
27840;BME280;15207;42.182;24.308;2023-07-16T10:18:32;99340.81;;;31.86;45.19
27840;BME280;15207;42.182;24.308;2023-07-16T10:21:09;99339.47;;;31.89;46.48
27840;BME280;15207;42.182;24.308;2023-07-16T10:23:38;99344.25;;;31.99;45.87
27840;BME280;15207;42.182;24.308;2023-07-16T10:26:06;99334.78;;;31.67;45.95
27840;BME280;15207;42.182;24.308;2023-07-16T10:28:35;99335.25;;;32.14;45.53
27840;BME280;15207;42.182;24.308;2023-07-16T10:31:02;99326.88;;;32.03;45.14
27840;BME280;15207;42.182;24.308;2023-07-16T10:33:27;99316.72;;;32.19;44.62
27840;BME280;15207;42.182;24.308;2023-07-16T10:35:53;99316.56;;;32.37;45.99
27840;BME280;15207;42.182;24.308;2023-07-16T10:38:18;99318.31;;;32.43;44.25
27840;BME280;15207;42.182;24.308;2023-07-16T10:40:45;99313.50;;;32.33;44.24
27840;BME280;15207;42.182;24.308;2023-07-16T10:43:11;99311.06;;;32.42;45.05
27840;BME280;15207;42.182;24.308;2023-07-16T10:45:36;99307.38;;;32.26;44.84
27840;BME280;15207;42.182;24.308;2023-07-16T10:48:02;99296.25;;;32.20;44.71
27840;BME280;15207;42.182;24.308;2023-07-16T10:50:28;99297.66;;;32.61;45.03
27840;BME280;15207;42.182;24.308;2023-07-16T10:52:55;99295.81;;;32.82;44.17
27840;BME280;15207;42.182;24.308;2023-07-16T10:55:21;99289.38;;;33.35;42.84
27840;BME280;15207;42.182;24.308;2023-07-16T10:57:48;99285.88;;;33.71;43.40
27840;BME280;15207;42.182;24.308;2023-07-16T11:00:15;99288.78;;;33.23;42.83
27840;BME280;15207;42.182;24.308;2023-07-16T11:02:42;99294.81;;;32.99;43.62
27840;BME280;15207;42.182;24.308;2023-07-16T11:05:13;99289.88;;;32.58;43.39
27840;BME280;15207;42.182;24.308;2023-07-16T11:07:42;99285.03;;;32.86;43.80
27840;BME280;15207;42.182;24.308;2023-07-16T11:10:09;99278.66;;;32.91;43.29
27840;BME280;15207;42.182;24.308;2023-07-16T11:12:34;99276.50;;;32.98;43.58
27840;BME280;15207;42.182;24.308;2023-07-16T11:15:00;99276.97;;;32.84;43.46
27840;BME280;15207;42.182;24.308;2023-07-16T11:17:25;99275.84;;;32.80;43.23
27840;BME280;15207;42.182;24.308;2023-07-16T11:19:51;99267.94;;;33.05;43.42
27840;BME280;15207;42.182;24.308;2023-07-16T11:22:18;99268.28;;;33.34;43.80
27840;BME280;15207;42.182;24.308;2023-07-16T11:24:45;99270.88;;;33.72;42.20
27840;BME280;15207;42.182;24.308;2023-07-16T11:27:16;99269.13;;;33.45;42.90
27840;BME280;15207;42.182;24.308;2023-07-16T11:29:50;99264.41;;;33.30;42.74
27840;BME280;15207;42.182;24.308;2023-07-16T11:32:33;99263.56;;;33.30;43.59
27840;BME280;15207;42.182;24.308;2023-07-16T11:35:02;99252.00;;;33.69;42.93
27840;BME280;15207;42.182;24.308;2023-07-16T11:37:29;99249.47;;;33.73;42.63
27840;BME280;15207;42.182;24.308;2023-07-16T11:40:04;99245.31;;;34.01;42.46
27840;BME280;15207;42.182;24.308;2023-07-16T11:45:03;99244.78;;;33.73;42.46
27840;BME280;15207;42.182;24.308;2023-07-16T11:47:29;99244.47;;;33.49;42.66
27840;BME280;15207;42.182;24.308;2023-07-16T11:49:56;99243.34;;;33.34;43.31
27840;BME280;15207;42.182;24.308;2023-07-16T11:52:29;99249.16;;;33.43;42.75
27840;BME280;15207;42.182;24.308;2023-07-16T11:54:57;99239.78;;;33.60;42.55
27840;BME280;15207;42.182;24.308;2023-07-16T11:57:26;99232.81;;;33.78;42.29
27840;BME280;15207;42.182;24.308;2023-07-16T11:59:52;99238.97;;;33.70;42.89
27840;BME280;15207;42.182;24.308;2023-07-16T12:02:17;99236.44;;;33.63;42.99
27840;BME280;15207;42.182;24.308;2023-07-16T12:04:43;99230.91;;;33.84;42.92
27840;BME280;15207;42.182;24.308;2023-07-16T12:07:09;99238.38;;;33.68;42.09
27840;BME280;15207;42.182;24.308;2023-07-16T12:09:34;99238.09;;;33.54;42.15
27840;BME280;15207;42.182;24.308;2023-07-16T12:12:00;99231.16;;;33.72;42.66
27840;BME280;15207;42.182;24.308;2023-07-16T12:14:26;99235.06;;;33.71;42.37
27840;BME280;15207;42.182;24.308;2023-07-16T12:16:52;99232.00;;;34.09;42.29
27840;BME280;15207;42.182;24.308;2023-07-16T12:19:17;99232.81;;;34.30;41.62
27840;BME280;15207;42.182;24.308;2023-07-16T12:21:43;99228.97;;;34.10;42.13
27840;BME280;15207;42.182;24.308;2023-07-16T12:24:09;99229.75;;;34.16;41.42
27840;BME280;15207;42.182;24.308;2023-07-16T12:26:35;99233.66;;;34.15;41.98
27840;BME280;15207;42.182;24.308;2023-07-16T12:29:01;99222.00;;;34.02;41.73
27840;BME280;15207;42.182;24.308;2023-07-16T12:31:30;99223.91;;;34.28;41.71
27840;BME280;15207;42.182;24.308;2023-07-16T12:33:58;99220.03;;;34.03;42.36
27840;BME280;15207;42.182;24.308;2023-07-16T12:36:24;99223.13;;;33.81;41.88
27840;BME280;15207;42.182;24.308;2023-07-16T12:38:50;99213.94;;;33.96;42.11
27840;BME280;15207;42.182;24.308;2023-07-16T12:41:15;99213.38;;;33.99;41.99
27840;BME280;15207;42.182;24.308;2023-07-16T12:43:41;99216.41;;;34.34;41.93
27840;BME280;15207;42.182;24.308;2023-07-16T12:46:07;99216.41;;;34.34;41.67
27840;BME280;15207;42.182;24.308;2023-07-16T12:48:33;99200.78;;;34.53;41.34
27840;BME280;15207;42.182;24.308;2023-07-16T12:50:59;99206.88;;;34.55;41.80
27840;BME280;15207;42.182;24.308;2023-07-16T12:53:25;99203.00;;;34.62;41.35
27840;BME280;15207;42.182;24.308;2023-07-16T12:55:51;99199.09;;;34.58;41.02